createdAt,value
2018-09-04T00:00:55.201Z,45.27
2018-09-04T00:03:23.849Z,45.83
2018-09-04T00:05:52.516Z,47.77
2018-09-04T00:08:21.165Z,49.70
2018-09-04T00:10:49.853Z,48.37
2018-09-04T00:13:18.679Z,49.07
2018-09-04T00:15:47.395Z,49.53
2018-09-04T00:18:16.074Z,47.30
2018-09-04T00:20:44.729Z,48.80
2018-09-04T00:23:13.623Z,43.40
2018-09-04T00:25:42.357Z,47.00
2018-09-04T00:28:11.037Z,46.40
2018-09-04T00:30:40.430Z,45.77
2018-09-04T00:33:09.153Z,50.03
2018-09-04T00:35:37.857Z,47.40
2018-09-04T00:38:06.550Z,46.80
2018-09-04T00:40:35.239Z,49.10
2018-09-04T00:43:04.097Z,49.53
2018-09-04T00:45:32.746Z,46.57
2018-09-04T00:48:01.504Z,47.47
2018-09-04T00:50:30.202Z,48.07
2018-09-04T00:52:58.966Z,46.80
2018-09-04T00:55:27.693Z,46.60
2018-09-04T00:57:56.662Z,46.07
2018-09-04T01:00:27.378Z,45.90
2018-09-04T01:02:56.910Z,47.30
2018-09-04T01:05:25.814Z,48.00
2018-09-04T01:07:54.466Z,47.90
2018-09-04T01:10:23.122Z,47.80
2018-09-04T01:12:52.435Z,46.80
2018-09-04T01:15:21.071Z,44.80
2018-09-04T01:17:49.729Z,46.10
2018-09-04T01:20:18.393Z,45.50
2018-09-04T01:22:47.078Z,45.83
2018-09-04T01:25:15.729Z,46.40
2018-09-04T01:27:44.421Z,43.93
2018-09-04T01:30:13.025Z,44.77
2018-09-04T01:32:41.734Z,45.73
2018-09-04T01:35:10.385Z,47.03
2018-09-04T01:37:39.129Z,46.67
2018-09-04T01:40:07.870Z,47.70
2018-09-04T01:42:36.590Z,46.77
2018-09-04T01:45:05.250Z,49.73
2018-09-04T01:47:33.957Z,45.97
2018-09-04T01:50:02.686Z,48.13
2018-09-04T01:52:31.365Z,46.00
2018-09-04T01:55:00.038Z,44.40
2018-09-04T01:57:28.729Z,46.40
2018-09-04T01:59:57.406Z,44.83
2018-09-04T02:02:26.070Z,48.60
2018-09-04T02:04:54.729Z,44.93
2018-09-04T02:07:23.438Z,43.07
2018-09-04T02:09:52.097Z,45.53
2018-09-04T02:12:20.747Z,47.90
2018-09-04T02:14:49.437Z,47.37
2018-09-04T02:17:18.126Z,48.77
2018-09-04T02:19:46.799Z,49.93
2018-09-04T02:22:15.456Z,52.03
2018-09-04T02:24:44.101Z,51.97
2018-09-04T02:27:12.839Z,48.13
2018-09-04T02:29:41.489Z,49.40
2018-09-04T02:32:10.138Z,49.90
2018-09-04T02:34:38.922Z,51.07
2018-09-04T02:37:07.609Z,51.00
2018-09-04T02:39:36.326Z,51.80
2018-09-04T02:42:05.033Z,53.17
2018-09-04T02:44:33.722Z,49.70
2018-09-04T02:47:02.371Z,48.20
2018-09-04T02:49:31.011Z,49.80
2018-09-04T02:51:59.670Z,50.23
2018-09-04T02:54:28.377Z,52.60
2018-09-04T02:56:57.040Z,47.87
2018-09-04T02:59:25.715Z,51.33
2018-09-04T03:01:54.366Z,49.53
2018-09-04T03:04:23.011Z,50.27
2018-09-04T03:06:51.693Z,47.63
2018-09-04T03:09:20.398Z,45.90
2018-09-04T03:11:49.134Z,49.43
2018-09-04T03:14:17.780Z,47.27
2018-09-04T03:16:46.434Z,50.50
2018-09-04T03:19:15.108Z,52.60
2018-09-04T03:21:43.774Z,52.60
2018-09-04T03:24:12.490Z,51.17
2018-09-04T03:26:41.209Z,49.83
2018-09-04T03:29:09.882Z,50.20
2018-09-04T03:31:38.581Z,49.20
2018-09-04T03:34:07.228Z,50.10
2018-09-04T03:36:35.894Z,50.20
2018-09-04T03:39:05.501Z,50.53
2018-09-04T03:41:34.219Z,54.67
2018-09-04T03:44:02.973Z,51.37
2018-09-04T03:46:31.635Z,51.80
2018-09-04T03:49:00.305Z,52.50
2018-09-04T03:51:28.973Z,52.40
2018-09-04T03:53:57.641Z,49.40
2018-09-04T03:56:26.293Z,52.90
2018-09-04T03:58:55.014Z,51.70
2018-09-04T04:01:23.819Z,53.70
2018-09-04T04:03:52.394Z,53.87
2018-09-04T04:06:21.065Z,49.80
2018-09-04T04:08:49.743Z,49.27
2018-09-04T04:11:18.475Z,51.60
2018-09-04T04:13:47.130Z,48.90
2018-09-04T04:16:15.797Z,51.73
2018-09-04T04:18:44.455Z,53.73
2018-09-04T04:21:13.097Z,51.40
2018-09-04T04:23:41.848Z,50.63
2018-09-04T04:26:10.480Z,48.43
2018-09-04T04:28:39.139Z,50.07
2018-09-04T04:31:07.778Z,46.50
2018-09-04T04:33:36.501Z,46.30
2018-09-04T04:36:05.229Z,52.40
2018-09-04T04:38:33.894Z,47.23
2018-09-04T04:41:02.593Z,51.23
2018-09-04T04:43:31.297Z,50.20
2018-09-04T04:45:59.993Z,49.53
2018-09-04T04:48:28.663Z,47.63
2018-09-04T04:50:57.337Z,48.60
2018-09-04T04:53:26.097Z,49.23
2018-09-04T04:55:54.832Z,47.30
2018-09-04T04:58:23.489Z,50.73
2018-09-04T05:00:52.136Z,48.50
2018-09-04T05:03:20.842Z,52.50
2018-09-04T05:05:49.612Z,48.87
2018-09-04T05:08:18.277Z,53.77
2018-09-04T05:10:46.922Z,52.33
2018-09-04T05:13:15.565Z,49.70
2018-09-04T05:15:44.298Z,53.33
2018-09-04T05:18:12.925Z,52.50
2018-09-04T05:20:41.590Z,55.50
2018-09-04T05:23:10.231Z,51.70
2018-09-04T05:25:38.873Z,53.10
2018-09-04T05:28:07.528Z,50.70
2018-09-04T05:30:36.186Z,50.10
2018-09-04T05:33:10.382Z,51.87
2018-09-04T05:35:56.762Z,49.83
2018-09-04T05:38:25.418Z,51.40
2018-09-04T05:40:54.090Z,51.10
2018-09-04T05:43:28.117Z,52.30
2018-09-04T05:45:58.665Z,52.13
2018-09-04T05:48:27.314Z,51.00
2018-09-04T05:50:55.974Z,51.27
2018-09-04T05:53:24.638Z,47.73
2018-09-04T05:55:53.277Z,50.23
2018-09-04T05:58:21.921Z,48.07
2018-09-04T06:00:55.469Z,50.37
2018-09-04T06:03:24.121Z,50.30
2018-09-04T06:05:52.793Z,50.57
2018-09-04T06:08:21.522Z,48.93
2018-09-04T06:10:50.217Z,48.87
2018-09-04T06:13:18.866Z,49.40
2018-09-04T06:15:47.554Z,51.20
2018-09-04T06:18:16.283Z,51.97
2018-09-04T06:20:44.950Z,51.60
2018-09-04T06:23:13.631Z,52.50
2018-09-04T06:25:42.329Z,48.50
2018-09-04T06:28:10.974Z,51.50
2018-09-04T06:30:39.626Z,49.97
2018-09-04T06:33:08.290Z,49.60
2018-09-04T06:35:36.962Z,50.37
2018-09-04T06:38:05.693Z,49.13
2018-09-04T06:40:34.405Z,51.43
2018-09-04T06:43:03.075Z,48.47
2018-09-04T06:45:31.771Z,51.00
2018-09-04T06:48:00.478Z,53.73
2018-09-04T06:50:29.130Z,54.70
2018-09-04T06:52:57.753Z,55.17
2018-09-04T06:55:26.368Z,57.00
2018-09-04T06:57:55.048Z,53.90
2018-09-04T07:00:23.602Z,59.60
2018-09-04T07:02:52.229Z,56.30
2018-09-04T07:05:20.913Z,58.00
2018-09-04T07:07:49.533Z,61.60
2018-09-04T07:10:18.221Z,56.07
2018-09-04T07:12:46.834Z,58.70
2018-09-04T07:15:15.442Z,56.70
2018-09-04T07:17:44.065Z,54.63
2018-09-04T07:20:12.673Z,56.97
2018-09-04T07:22:41.282Z,58.80
2018-09-04T07:25:09.916Z,60.47
2018-09-04T07:27:38.615Z,59.47
2018-09-04T07:30:07.234Z,56.90
2018-09-04T07:32:35.861Z,58.47
2018-09-04T07:35:04.517Z,57.87
2018-09-04T07:37:33.158Z,57.20
2018-09-04T07:40:01.829Z,57.50
2018-09-04T07:42:30.535Z,58.80
2018-09-04T07:44:59.186Z,57.60
2018-09-04T07:47:27.834Z,59.77
2018-09-04T07:49:56.494Z,59.37
2018-09-04T07:52:25.138Z,57.70
2018-09-04T07:54:53.844Z,57.27
2018-09-04T07:57:22.490Z,56.43
2018-09-04T07:59:51.221Z,57.50
2018-09-04T08:02:19.926Z,59.67
2018-09-04T08:04:48.582Z,60.07
2018-09-04T08:07:17.235Z,60.50
2018-09-04T08:09:45.906Z,58.20
2018-09-04T08:12:21.436Z,68.97
2018-09-04T08:14:50.081Z,66.47
2018-09-04T08:17:18.734Z,67.80
2018-09-04T08:19:47.396Z,65.07
2018-09-04T08:22:16.072Z,67.67
2018-09-04T08:24:44.774Z,67.10
2018-09-04T08:27:13.474Z,70.77
2018-09-04T08:29:42.185Z,68.10
2018-09-04T08:32:10.846Z,72.97
2018-09-04T08:34:39.585Z,71.17
2018-09-04T08:37:08.242Z,69.00
2018-09-04T08:39:36.906Z,72.30
2018-09-04T08:42:05.925Z,71.87
2018-09-04T08:44:34.626Z,69.70
2018-09-04T08:47:03.490Z,72.23
2018-09-04T08:49:32.066Z,70.87
2018-09-04T08:52:00.774Z,74.23
2018-09-04T08:54:29.485Z,71.70
2018-09-04T08:56:58.793Z,70.67
2018-09-04T08:59:27.778Z,70.57
2018-09-04T09:01:56.430Z,72.20
2018-09-04T09:04:25.090Z,71.80
2018-09-04T09:06:53.793Z,76.00
2018-09-04T09:09:22.450Z,75.27
2018-09-04T09:11:51.107Z,75.70
2018-09-04T09:14:19.926Z,74.87
2018-09-04T09:16:48.636Z,73.27
2018-09-04T09:19:17.259Z,75.17
2018-09-04T09:21:45.913Z,79.97
2018-09-04T09:24:14.587Z,80.37
2018-09-04T09:26:43.277Z,81.03
2018-09-04T09:29:12.057Z,78.77
2018-09-04T09:31:40.715Z,82.10
2018-09-04T09:34:09.500Z,83.57
2018-09-04T09:36:38.238Z,80.07
2018-09-04T09:39:08.379Z,81.07
2018-09-04T09:41:37.309Z,83.40
2018-09-04T09:44:06.005Z,76.90
2018-09-04T09:46:34.831Z,76.03
2018-09-04T09:49:03.537Z,77.60
2018-09-04T09:51:32.176Z,76.30
2018-09-04T09:54:00.919Z,77.73
2018-09-04T09:56:29.499Z,75.80
2018-09-04T09:58:58.109Z,73.33
2018-09-04T10:01:31.058Z,73.30
2018-09-04T10:04:04.092Z,65.83
2018-09-04T10:06:32.829Z,60.63
2018-09-04T10:09:01.480Z,66.27
2018-09-04T10:11:30.222Z,70.97
2018-09-04T10:13:58.879Z,64.47
2018-09-04T10:16:27.617Z,59.57
2018-09-04T10:18:56.265Z,64.10
2018-09-04T10:21:25.093Z,65.73
2018-09-04T10:23:53.665Z,58.53
2018-09-04T10:26:22.383Z,58.53
2018-09-04T10:28:51.018Z,58.93
2018-09-04T10:31:19.766Z,56.47
2018-09-04T10:33:48.409Z,52.80
2018-09-04T10:36:17.073Z,56.63
2018-09-04T10:38:45.701Z,58.70
2018-09-04T10:41:15.217Z,52.67
2018-09-04T10:43:43.871Z,51.13
2018-09-04T10:46:14.096Z,47.03
2018-09-04T10:48:42.708Z,48.80
2018-09-04T10:51:11.365Z,52.98
2018-09-04T10:53:40.017Z,52.25
2018-09-04T10:56:08.674Z,50.28
2018-09-04T10:58:37.322Z,47.30
2018-09-04T11:01:06.092Z,45.03
2018-09-04T11:03:34.740Z,44.00
2018-09-04T11:06:03.398Z,43.70
2018-09-04T11:08:32.045Z,42.78
2018-09-04T11:11:00.698Z,50.90
2018-09-04T11:13:29.450Z,49.40
2018-09-04T11:15:58.118Z,46.98
2018-09-04T11:23:14.861Z,43.63
2018-09-04T11:25:43.602Z,42.17
2018-09-04T11:28:12.259Z,40.05
2018-09-04T11:30:40.940Z,41.42
2018-09-04T11:33:09.633Z,42.67
2018-09-04T11:35:38.282Z,43.10
2018-09-04T11:38:06.953Z,37.98
2018-09-04T11:40:35.645Z,36.65
2018-09-04T11:43:04.294Z,37.05
2018-09-04T11:45:32.943Z,38.50
2018-09-04T11:48:01.606Z,37.17
2018-09-04T11:50:30.281Z,34.95
2018-09-04T11:52:59.021Z,36.80
2018-09-04T11:55:27.669Z,37.55
2018-09-04T11:57:56.329Z,34.67
2018-09-04T12:00:28.785Z,31.25
2018-09-04T12:02:57.442Z,29.37
2018-09-04T12:05:26.093Z,29.40
2018-09-04T12:07:54.750Z,26.50
2018-09-04T12:10:23.429Z,25.27
2018-09-04T12:12:52.111Z,29.60
2018-09-04T12:15:20.705Z,32.03
2018-09-04T12:17:49.354Z,28.42
2018-09-04T12:20:45.479Z,29.85
2018-09-04T12:23:14.062Z,27.67
2018-09-04T12:25:43.424Z,30.95
2018-09-04T12:28:12.082Z,31.85
2018-09-04T12:30:40.730Z,28.02
2018-09-04T12:33:09.401Z,32.90
2018-09-04T12:35:38.105Z,31.25
2018-09-04T12:38:08.469Z,29.90
2018-09-04T12:40:37.121Z,29.55
2018-09-04T12:43:05.877Z,28.75
2018-09-04T12:45:40.016Z,23.45
2018-09-04T12:48:10.677Z,23.55
2018-09-04T12:50:39.596Z,22.37
2018-09-04T12:53:08.784Z,23.52
2018-09-04T12:55:37.446Z,22.82
2018-09-04T12:58:06.170Z,21.30
2018-09-04T13:00:34.838Z,22.93
2018-09-04T13:03:03.511Z,22.98
2018-09-04T13:05:32.162Z,21.97
2018-09-04T13:08:00.809Z,24.80
2018-09-04T13:10:29.458Z,25.20
2018-09-04T13:12:58.105Z,24.90
2018-09-04T13:15:26.867Z,22.60
2018-09-04T13:17:55.514Z,28.15
2018-09-04T13:20:24.168Z,25.70
2018-09-04T13:22:52.817Z,23.30
2018-09-04T13:25:21.604Z,22.70
2018-09-04T13:27:50.255Z,25.95
2018-09-04T13:30:18.951Z,26.33
2018-09-04T13:32:47.605Z,25.65
2018-09-04T13:35:16.367Z,26.23
2018-09-04T13:37:45.025Z,25.80
2018-09-04T13:40:13.756Z,25.25
2018-09-04T13:42:42.405Z,27.50
2018-09-04T13:45:11.166Z,26.27
2018-09-04T13:47:39.875Z,26.12
2018-09-04T13:50:08.509Z,22.22
2018-09-04T13:52:37.170Z,23.85
2018-09-04T13:55:06.093Z,23.05
2018-09-04T13:57:34.795Z,23.40
2018-09-04T14:00:03.469Z,23.38
2018-09-04T14:02:32.146Z,24.50
2018-09-04T14:05:00.809Z,24.57
2018-09-04T14:07:29.564Z,22.35
2018-09-04T14:09:58.266Z,23.60
2018-09-04T14:12:26.901Z,24.07
2018-09-04T14:14:55.554Z,19.80
2018-09-04T14:17:24.286Z,22.22
2018-09-04T14:19:52.954Z,20.62
2018-09-04T14:22:21.604Z,17.32
2018-09-04T14:24:50.309Z,18.60
2018-09-04T14:27:18.946Z,19.00
2018-09-04T14:30:15.539Z,17.50
2018-09-04T14:32:16.242Z,17.90
2018-09-04T14:34:44.893Z,19.07
2018-09-04T14:37:13.749Z,17.10
2018-09-04T14:39:42.227Z,17.25
2018-09-04T14:42:10.955Z,17.60
2018-09-04T14:44:39.566Z,18.20
2018-09-04T14:47:08.213Z,17.52
2018-09-04T14:49:36.875Z,16.95
2018-09-04T14:52:05.687Z,16.82
2018-09-04T14:54:34.345Z,16.42
2018-09-04T14:57:03.056Z,17.65
2018-09-04T14:59:31.695Z,15.85
2018-09-04T15:02:00.333Z,16.48
2018-09-04T15:04:29.042Z,16.90
2018-09-04T15:06:57.714Z,17.35
2018-09-04T15:09:26.365Z,17.40
2018-09-04T15:11:55.017Z,18.75
2018-09-04T15:14:23.689Z,17.60
2018-09-04T15:16:53.813Z,17.82
2018-09-04T15:19:22.574Z,17.45
2018-09-04T15:21:51.373Z,17.98
2018-09-04T15:24:20.025Z,18.62
2018-09-04T15:26:53.900Z,18.35
2018-09-04T15:29:22.677Z,17.80
2018-09-04T15:31:51.494Z,17.13
2018-09-04T15:34:20.219Z,18.53
2018-09-04T15:36:48.889Z,17.70
2018-09-04T15:39:17.597Z,17.30
2018-09-04T15:41:46.337Z,19.40
2018-09-04T15:44:14.990Z,17.87
2018-09-04T15:46:43.645Z,17.17
2018-09-04T15:49:17.878Z,17.70
2018-09-04T15:51:46.509Z,19.00
2018-09-04T15:54:15.213Z,21.47
2018-09-04T15:56:43.890Z,19.90
2018-09-04T15:59:12.617Z,21.93
2018-09-04T16:01:41.313Z,21.30
2018-09-04T16:04:09.985Z,21.50
2018-09-04T16:06:38.701Z,20.50
2018-09-04T16:09:07.373Z,23.37
2018-09-04T16:11:36.112Z,25.47
2018-09-04T16:14:04.765Z,24.47
2018-09-04T16:16:33.494Z,23.20
2018-09-04T16:19:02.156Z,23.57
2018-09-04T16:21:30.907Z,23.00
2018-09-04T16:23:59.645Z,20.67
2018-09-04T16:26:28.338Z,22.67
2018-09-04T16:28:56.962Z,21.80
2018-09-04T16:31:25.622Z,24.00
2018-09-04T16:33:54.276Z,24.00
2018-09-04T16:36:23.014Z,25.10
2018-09-04T16:38:51.653Z,23.97
2018-09-04T16:41:20.634Z,26.17
2018-09-04T16:43:49.367Z,26.10
2018-09-04T16:46:18.193Z,27.83
2018-09-04T16:48:46.840Z,26.97
2018-09-04T16:51:15.494Z,26.40
2018-09-04T16:53:44.145Z,27.50
2018-09-04T16:56:12.801Z,27.60
2018-09-04T16:58:41.461Z,26.90
2018-09-04T17:01:10.114Z,26.97
2018-09-04T17:03:38.762Z,29.00
2018-09-04T17:06:07.417Z,27.67
2018-09-04T17:08:36.098Z,31.30
2018-09-04T17:11:04.857Z,31.33
2018-09-04T17:13:33.593Z,31.60
2018-09-04T17:16:02.512Z,32.20
2018-09-04T17:18:31.300Z,31.70
2018-09-04T17:20:59.930Z,29.70
2018-09-04T17:23:28.580Z,32.60
2018-09-04T17:25:57.344Z,34.23
2018-09-04T17:28:26.699Z,32.97
2018-09-04T17:30:55.357Z,32.77
2018-09-04T17:33:24.118Z,32.70
2018-09-04T17:35:52.773Z,32.80
2018-09-04T17:38:21.581Z,34.43
2018-09-04T17:40:50.178Z,36.03
2018-09-04T17:43:18.853Z,36.10
2018-09-04T17:45:47.569Z,34.90
2018-09-04T17:48:16.346Z,33.20
2018-09-04T17:50:44.957Z,33.50
2018-09-04T17:53:13.746Z,35.07
2018-09-04T17:55:42.426Z,35.53
2018-09-04T17:58:11.105Z,36.10
2018-09-04T18:00:39.806Z,36.17
2018-09-04T18:03:08.504Z,36.07
2018-09-04T18:05:38.086Z,37.67
2018-09-04T18:08:06.839Z,36.97
2018-09-04T18:10:35.498Z,38.20
2018-09-04T18:13:04.185Z,37.10
2018-09-04T18:15:32.941Z,38.57
2018-09-04T18:18:01.626Z,37.37
2018-09-04T18:20:30.294Z,38.80
2018-09-04T18:22:59.033Z,40.90
2018-09-04T18:25:28.021Z,39.37
2018-09-04T18:27:56.665Z,40.80
2018-09-04T18:30:25.486Z,41.90
2018-09-04T18:32:54.141Z,38.57
2018-09-04T18:35:22.788Z,40.40
2018-09-04T18:37:51.435Z,42.33
2018-09-04T18:40:20.205Z,42.40
2018-09-04T18:42:49.166Z,40.70
2018-09-04T18:45:29.185Z,42.10
2018-09-04T18:47:57.917Z,39.10
2018-09-04T18:50:26.631Z,41.27
2018-09-04T18:52:55.323Z,40.20
2018-09-04T18:55:24.002Z,42.80
2018-09-04T18:57:52.707Z,40.17
2018-09-04T19:00:21.361Z,41.57
2018-09-04T19:02:50.518Z,43.60
2018-09-04T19:05:19.350Z,42.00
2018-09-04T19:07:48.062Z,45.10
2018-09-04T19:10:17.093Z,41.90
2018-09-04T19:12:45.849Z,43.23
2018-09-04T19:15:14.630Z,40.57
2018-09-04T19:17:43.394Z,43.40
2018-09-04T19:20:12.159Z,43.07
2018-09-04T19:22:40.854Z,44.40
2018-09-04T19:25:09.518Z,41.70
2018-09-04T19:27:38.254Z,42.80
2018-09-04T19:30:06.954Z,41.13
2018-09-04T19:32:35.653Z,42.23
2018-09-04T19:35:04.305Z,42.80
2018-09-04T19:37:33.117Z,40.40
2018-09-04T19:40:01.700Z,42.70
2018-09-04T19:42:30.426Z,41.17
2018-09-04T19:44:59.138Z,42.33
2018-09-04T19:47:27.789Z,39.80
2018-09-04T19:49:56.607Z,42.80
2018-09-04T19:52:25.228Z,43.07
2018-09-04T19:54:53.929Z,46.20
2018-09-04T19:57:22.645Z,45.90
2018-09-04T19:59:51.330Z,43.77
2018-09-04T20:02:20.422Z,42.43
2018-09-04T20:04:49.130Z,45.30
2018-09-04T20:07:18.595Z,43.70
2018-09-04T20:09:47.170Z,42.50
2018-09-04T20:12:15.976Z,44.70
2018-09-04T20:14:44.803Z,44.17
2018-09-04T20:17:13.501Z,42.70
2018-09-04T20:19:42.134Z,42.60
2018-09-04T20:22:11.486Z,43.30
2018-09-04T20:24:40.193Z,44.10
2018-09-04T20:27:08.845Z,43.37
2018-09-04T20:29:37.500Z,41.87
2018-09-04T20:32:06.177Z,42.87
2018-09-04T20:34:34.861Z,42.97
2018-09-04T20:37:03.609Z,44.37
2018-09-04T20:39:32.261Z,43.80
2018-09-04T20:42:00.973Z,42.90
2018-09-04T20:44:29.649Z,43.80
2018-09-04T20:46:58.398Z,42.90
2018-09-04T20:49:27.042Z,43.27
2018-09-04T20:51:55.686Z,42.17
2018-09-04T20:54:24.494Z,42.40
2018-09-04T20:57:30.010Z,44.50
2018-09-04T21:00:12.330Z,42.27
2018-09-04T21:02:52.322Z,42.40
2018-09-04T21:05:32.527Z,42.30
2018-09-04T21:08:43.473Z,42.97
2018-09-04T21:11:12.210Z,44.10
2018-09-04T21:13:42.466Z,42.37
2018-09-04T21:17:35.965Z,44.17
2018-09-04T21:20:04.660Z,44.10
2018-09-04T21:22:33.413Z,42.93
2018-09-04T21:25:02.117Z,43.57
2018-09-04T21:27:30.804Z,45.87
2018-09-04T21:29:59.517Z,43.47
2018-09-04T21:32:28.153Z,43.50
2018-09-04T21:34:56.910Z,43.90
2018-09-04T21:37:25.609Z,43.40
2018-09-04T21:39:54.324Z,44.03
2018-09-04T21:42:23.109Z,45.43
2018-09-04T21:44:51.810Z,47.30
2018-09-04T21:47:20.551Z,51.13
2018-09-04T21:49:49.213Z,48.20
2018-09-04T21:52:17.883Z,49.90
2018-09-04T21:54:46.545Z,48.80
2018-09-04T21:57:15.290Z,50.03
2018-09-04T21:59:44.180Z,49.77
2018-09-04T22:02:12.809Z,48.20
2018-09-04T22:04:42.114Z,47.13
2018-09-04T22:07:10.850Z,48.40
2018-09-04T22:09:39.804Z,48.00
2018-09-04T22:12:10.383Z,49.53
2018-09-04T22:14:39.127Z,47.40
2018-09-04T22:17:07.838Z,47.73
2018-09-04T22:19:36.482Z,48.17
2018-09-04T22:22:05.150Z,48.70
2018-09-04T22:24:35.597Z,45.30
2018-09-04T22:27:11.058Z,45.70
2018-09-04T22:29:41.790Z,47.13
2018-09-04T22:32:11.226Z,45.10
2018-09-04T22:34:39.925Z,46.37
2018-09-04T22:37:08.614Z,47.67
2018-09-04T22:39:37.268Z,46.30
2018-09-04T22:42:05.917Z,44.80
2018-09-04T22:44:34.593Z,45.40
2018-09-04T22:47:03.354Z,45.23
2018-09-04T22:49:31.997Z,46.27
2018-09-04T22:52:01.537Z,45.23
2018-09-04T22:54:30.174Z,45.83
2018-09-04T22:56:58.837Z,46.03
2018-09-04T22:59:27.850Z,46.97
2018-09-04T23:01:56.571Z,44.30
2018-09-04T23:04:25.229Z,47.43
2018-09-04T23:06:53.878Z,45.93
2018-09-04T23:09:22.532Z,44.77
2018-09-04T23:11:51.189Z,45.67
2018-09-04T23:14:19.901Z,45.43
2018-09-04T23:16:48.549Z,43.87
2018-09-04T23:19:17.194Z,41.47
2018-09-04T23:21:45.830Z,43.87
2018-09-04T23:24:14.538Z,42.97
2018-09-04T23:26:43.249Z,44.43
2018-09-04T23:29:11.882Z,45.50
2018-09-04T23:31:40.534Z,43.57
2018-09-04T23:34:09.172Z,40.90
2018-09-04T23:36:37.833Z,46.70
2018-09-04T23:39:06.776Z,44.97
2018-09-04T23:41:35.483Z,45.90
2018-09-04T23:44:04.319Z,48.17
2018-09-04T23:46:33.141Z,47.77
2018-09-04T23:49:01.786Z,47.60
2018-09-04T23:51:30.551Z,45.07
2018-09-04T23:53:59.209Z,44.23
2018-09-04T23:56:27.974Z,49.27
2018-09-04T23:58:56.609Z,48.40
